Lian Tong — 9LY2625 — position and weather

sailwx.info

Track history (hours):
 
Tides and Currents Weather Stations Pressure Air Temp Water Temp Dewpoint Dewpoint Depression Visibility Wind Speed Wind Dir Waves Ship Positions

Lian Tong

Last reported at 2017-Dec-11 01:54 UTC. Time now 2017-Dec-15 08:04 UTC.
Position N 33°42' E 129°56'.

Length 90 m; draft 4.1 m.

Type: Cargo ship. MMSI: 667003428.

Date/timePositionNaut miles runAvg speedWind from/ knotsBaromVisibWave heightAir tempDewpointWater temp
2017-Dec-11 01:54N 33°42' E 129°56'2 6.2
2017-Dec-11 01:30N 33°43' E 129°59'3 5.9
2017-Dec-11 01:00N 33°44' E 130°02'3 5.8
2017-Dec-11 00:30N 33°46' E 130°05'3 5.5
2017-Dec-11 00:00N 33°47' E 130°08'3 5.2
2017-Dec-10 23:30N 33°49' E 130°10'3 5.2
2017-Dec-10 23:01N 33°50' E 130°13'3 5.3
2017-Dec-10 22:30N 33°51' E 130°16'2 4.8
2017-Dec-10 22:00N 33°53' E 130°18'2 4.4
2017-Dec-10 21:30N 33°54' E 130°20'2 4.6
2017-Dec-10 21:00N 33°56' E 130°22'2 4.6
2017-Dec-10 20:30N 33°58' E 130°24'2 4.4
2017-Dec-10 20:00N 33°59' E 130°26'2 4.3
2017-Dec-10 19:30N 34°01' E 130°27'2 4.4
2017-Dec-10 19:00N 34°03' E 130°29'2 4.1
2017-Dec-10 18:30N 34°04' E 130°31'2 4.3
2017-Dec-10 18:00N 34°06' E 130°32'2 4.1
2017-Dec-10 17:31N 34°07' E 130°34'2 3.9
2017-Dec-10 17:00N 34°08' E 130°36'2 4.3
2017-Dec-10 16:30N 34°09' E 130°38'2 4.5
2017-Dec-10 16:00N 34°11' E 130°40'2 4.8
2017-Dec-10 15:30N 34°13' E 130°42'3 5.2
2017-Dec-10 15:00N 34°15' E 130°43'3 5.2
2017-Dec-10 14:30N 34°17' E 130°45'2 4.9
2017-Dec-10 14:00N 34°19' E 130°47'2 4.8
2017-Dec-10 13:30N 34°21' E 130°48'2 4.7
2017-Dec-10 13:00N 34°23' E 130°50'2 4.7
2017-Dec-10 12:30N 34°25' E 130°52'  
Track history (hours):
 
Tides and Currents Weather Stations Pressure Air Temp Water Temp Dewpoint Dewpoint Depression Visibility Wind Speed Wind Dir Waves Ship Positions

Lian Tong

Last reported at 2017-Dec-11 01:54 UTC. Time now 2017-Dec-15 08:04 UTC.
Position N 33°42' E 129°56'.

Length 90 m; draft 4.1 m.

Type: Cargo ship. MMSI: 667003428.

Date/timePositionNaut miles runAvg speedWind from/ knotsBaromVisibWave heightAir tempDewpointWater temp
2017-Dec-11 01:54N 33°42' E 129°56'2 6.2
2017-Dec-11 01:30N 33°43' E 129°59'3 5.9
2017-Dec-11 01:00N 33°44' E 130°02'3 5.8
2017-Dec-11 00:30N 33°46' E 130°05'3 5.5
2017-Dec-11 00:00N 33°47' E 130°08'3 5.2
2017-Dec-10 23:30N 33°49' E 130°10'3 5.2
2017-Dec-10 23:01N 33°50' E 130°13'3 5.3
2017-Dec-10 22:30N 33°51' E 130°16'2 4.8
2017-Dec-10 22:00N 33°53' E 130°18'2 4.4
2017-Dec-10 21:30N 33°54' E 130°20'2 4.6
2017-Dec-10 21:00N 33°56' E 130°22'2 4.6
2017-Dec-10 20:30N 33°58' E 130°24'2 4.4
2017-Dec-10 20:00N 33°59' E 130°26'2 4.3
2017-Dec-10 19:30N 34°01' E 130°27'2 4.4
2017-Dec-10 19:00N 34°03' E 130°29'2 4.1
2017-Dec-10 18:30N 34°04' E 130°31'2 4.3
2017-Dec-10 18:00N 34°06' E 130°32'2 4.1
2017-Dec-10 17:31N 34°07' E 130°34'2 3.9
2017-Dec-10 17:00N 34°08' E 130°36'2 4.3
2017-Dec-10 16:30N 34°09' E 130°38'2 4.5
2017-Dec-10 16:00N 34°11' E 130°40'2 4.8
2017-Dec-10 15:30N 34°13' E 130°42'3 5.2
2017-Dec-10 15:00N 34°15' E 130°43'3 5.2
2017-Dec-10 14:30N 34°17' E 130°45'2 4.9
2017-Dec-10 14:00N 34°19' E 130°47'2 4.8
2017-Dec-10 13:30N 34°21' E 130°48'2 4.7
2017-Dec-10 13:00N 34°23' E 130°50'2 4.7
2017-Dec-10 12:30N 34°25' E 130°52'  

Dump ship's entire track history